Time;durP1;ratioP1;P1;durP2;ratioP2;P2;SDS_P1;SDS_P2;PMS_P1;PMS_P2;Temp;Humidity;BMP_temperature;BMP_pressure;BME280_temperature;BME280_humidity;BME280_pressure;Samples;Min_cycle;Max_cycle;Signal;HPM_P1;HPM_P2
2022/09/02 00:01:23;;;;;;;2.17;1.98;;;18.50;99.90;;;;;;7390106;19;20131;-74
2022/09/02 00:03:50;;;;;;;2.90;1.83;;;18.40;99.90;;;;;;7389940;19;20138;-73
2022/09/02 00:06:17;;;;;;;2.35;2.15;;;18.50;99.90;;;;;;7390249;19;20134;-73
2022/09/02 00:08:44;;;;;;;5.18;2.22;;;18.20;99.90;;;;;;7390823;19;20139;-74
2022/09/02 00:11:15;;;;;;;2.40;2.20;;;18.20;99.90;;;;;;7389449;19;20166;-73
2022/09/02 00:13:42;;;;;;;3.72;2.28;;;18.50;99.90;;;;;;7390811;19;20146;-72
2022/09/02 00:16:09;;;;;;;2.78;2.22;;;18.40;99.90;;;;;;7390494;19;20170;-72
2022/09/02 00:18:35;;;;;;;3.63;2.20;;;18.60;99.90;;;;;;7390591;19;20177;-74
2022/09/02 00:21:03;;;;;;;4.68;2.10;;;18.60;99.90;;;;;;7391325;19;20133;-74
2022/09/02 00:23:29;;;;;;;4.43;2.30;;;18.30;99.90;;;;;;7389832;19;20154;-73
2022/09/02 00:25:54;;;;;;;4.07;2.67;;;17.70;99.90;;;;;;7390647;19;20522;-72
2022/09/02 00:28:20;;;;;;;4.13;2.72;;;17.50;99.90;;;;;;7388336;19;20135;-73
2022/09/02 00:30:46;;;;;;;3.47;2.38;;;17.40;99.90;;;;;;7390804;19;20219;-73
2022/09/02 00:33:12;;;;;;;2.97;2.42;;;17.50;99.90;;;;;;7388831;19;20141;-74
2022/09/02 00:35:39;;;;;;;3.90;2.30;;;17.50;99.90;;;;;;7390553;19;20146;-73
2022/09/02 00:38:06;;;;;;;4.13;2.40;;;17.70;99.90;;;;;;7388634;19;20579;-74
2022/09/02 00:40:33;;;;;;;3.17;2.25;;;18.00;99.90;;;;;;7390220;19;20146;-74
2022/09/02 00:42:59;;;;;;;3.05;2.60;;;18.30;99.90;;;;;;7390556;19;20139;-72
2022/09/02 00:45:24;;;;;;;3.15;2.60;;;18.30;99.90;;;;;;7390467;19;20179;-73
2022/09/02 00:47:50;;;;;;;3.67;2.28;;;18.00;99.90;;;;;;7388510;19;20143;-72
2022/09/02 00:50:21;;;;;;;3.10;2.50;;;17.80;99.90;;;;;;7388901;19;20163;-75
2022/09/02 00:52:52;;;;;;;3.20;2.60;;;17.90;99.90;;;;;;7389082;19;20514;-74
2022/09/02 00:55:26;;;;;;;4.80;2.58;;;18.20;99.90;;;;;;7390262;19;20147;-74
2022/09/02 00:58:05;;;;;;;2.80;2.50;;;18.20;99.90;;;;;;7389465;19;20142;-74
2022/09/02 01:00:41;;;;;;;4.25;2.95;;;18.20;99.90;;;;;;7398197;19;20134;-72
2022/09/02 01:03:11;;;;;;;6.70;2.50;;;18.00;99.90;;;;;;7396842;19;20513;-73
2022/09/02 01:05:44;;;;;;;3.50;2.40;;;18.00;99.90;;;;;;7398126;19;20135;-73
2022/09/02 01:08:13;;;;;;;5.63;2.78;;;18.00;99.90;;;;;;7396305;19;20169;-73
2022/09/02 01:10:39;;;;;;;2.35;2.15;;;17.80;99.90;;;;;;7397483;19;20218;-73
2022/09/02 01:13:14;;;;;;;3.40;2.30;;;17.70;99.90;;;;;;7392416;19;20505;-73
2022/09/02 01:15:43;;;;;;;2.95;2.17;;;17.50;99.90;;;;;;7398305;19;20138;-72
2022/09/02 01:18:14;;;;;;;6.07;2.53;;;17.60;99.90;;;;;;7393576;19;20134;-73
2022/09/02 01:20:39;;;;;;;2.92;2.22;;;17.50;99.90;;;;;;7395435;19;20146;-73
2022/09/02 01:23:05;;;;;;;3.13;2.38;;;17.40;99.90;;;;;;7395792;19;20626;-73
2022/09/02 01:25:32;;;;;;;2.63;2.03;;;17.40;99.90;;;;;;7395780;19;20265;-73
2022/09/02 01:28:01;;;;;;;2.95;2.50;;;17.30;99.90;;;;;;7397257;19;20528;-73
2022/09/02 01:30:28;;;;;;;2.97;2.20;;;17.70;99.90;;;;;;7395504;19;20623;-73
2022/09/02 01:32:54;;;;;;;2.55;2.30;;;17.60;99.90;;;;;;7395656;19;20167;-73
2022/09/02 01:35:20;;;;;;;3.03;2.33;;;17.40;99.90;;;;;;7395575;19;20210;-72
2022/09/02 01:37:47;;;;;;;2.70;2.20;;;17.40;99.90;;;;;;7389179;19;20138;-73
2022/09/02 01:40:16;;;;;;;2.92;2.38;;;17.40;99.90;;;;;;7389466;19;20154;-73
2022/09/02 01:42:44;;;;;;;2.90;2.20;;;17.30;99.90;;;;;;7397421;19;20135;-73
2022/09/02 01:45:10;;;;;;;2.50;2.00;;;17.70;99.90;;;;;;7396501;19;20163;-73
2022/09/02 01:47:36;;;;;;;3.63;2.53;;;18.00;99.90;;;;;;7396960;19;20587;-73
2022/09/02 01:50:05;;;;;;;2.95;2.20;;;18.10;99.90;;;;;;7396971;19;20138;-74
2022/09/02 01:52:30;;;;;;;3.70;2.17;;;18.20;99.90;;;;;;7394277;19;20145;-73
2022/09/02 01:54:56;;;;;;;2.00;1.80;;;18.20;99.90;;;;;;7393925;19;20134;-73
2022/09/02 01:57:23;;;;;;;2.47;2.03;;;18.30;99.90;;;;;;7394771;19;20151;-73
2022/09/02 01:59:50;;;;;;;2.17;1.98;;;18.30;99.90;;;;;;7394029;19;20149;-73
2022/09/02 02:02:18;;;;;;;2.47;1.90;;;18.30;99.90;;;;;;7394578;19;20210;-73
2022/09/02 02:04:45;;;;;;;2.53;1.98;;;18.20;99.90;;;;;;7393962;19;20217;-73
2022/09/02 02:07:14;;;;;;;1.90;1.70;;;17.90;99.90;;;;;;7394789;19;20595;-73
2022/09/02 02:09:40;;;;;;;2.50;1.88;;;17.70;99.90;;;;;;7393562;19;20141;-72
2022/09/02 02:12:06;;;;;;;2.08;1.73;;;17.80;99.90;;;;;;7393249;19;20865;-71
2022/09/02 02:14:32;;;;;;;2.00;1.70;;;17.80;99.90;;;;;;7392912;19;20693;-73
2022/09/02 02:16:59;;;;;;;3.60;1.60;;;17.90;99.90;;;;;;7394288;19;20134;-72
2022/09/02 02:19:25;;;;;;;2.92;1.80;;;18.00;99.90;;;;;;7394147;19;20142;-73
2022/09/02 02:21:51;;;;;;;1.83;1.50;;;18.10;99.90;;;;;;7394615;19;20210;-73
2022/09/02 02:24:16;;;;;;;1.90;1.58;;;17.40;99.90;;;;;;7395487;19;20207;-73
2022/09/02 02:26:42;;;;;;;2.10;1.73;;;16.90;99.90;;;;;;7392868;19;20143;-74
2022/09/02 02:29:08;;;;;;;1.45;1.35;;;16.70;99.90;;;;;;7393429;19;20141;-73
2022/09/02 02:31:34;;;;;;;2.53;1.55;;;16.60;99.90;;;;;;7394245;19;20135;-73
2022/09/02 02:34:00;;;;;;;2.40;1.58;;;16.70;99.90;;;;;;7393057;19;20229;-73
2022/09/02 02:36:26;;;;;;;2.75;1.60;;;16.60;99.90;;;;;;7393856;19;20142;-73
2022/09/02 02:38:53;;;;;;;2.35;1.65;;;16.80;99.90;;;;;;7393005;19;20477;-73
2022/09/02 02:41:19;;;;;;;1.90;1.70;;;16.60;99.90;;;;;;7394402;19;20139;-73
2022/09/02 02:43:46;;;;;;;3.42;1.70;;;16.70;99.90;;;;;;7393781;19;20130;-74
2022/09/02 02:46:12;;;;;;;2.63;1.70;;;16.70;99.90;;;;;;7393871;19;20614;-73
2022/09/02 02:48:38;;;;;;;1.98;1.63;;;16.80;99.90;;;;;;7391934;19;20161;-74
2022/09/02 02:51:05;;;;;;;2.75;1.83;;;16.90;99.90;;;;;;7392575;19;20131;-73
2022/09/02 02:53:31;;;;;;;4.95;1.83;;;16.50;99.90;;;;;;7392251;19;20134;-73
2022/09/02 02:56:00;;;;;;;4.10;1.83;;;16.40;99.90;;;;;;7395203;19;20142;-74
2022/09/02 02:58:26;;;;;;;1.67;1.48;;;16.60;99.90;;;;;;7394183;19;20135;-79
2022/09/02 03:00:52;;;;;;;2.25;1.55;;;16.60;99.90;;;;;;7395118;19;20135;-78
2022/09/02 03:03:18;;;;;;;3.17;1.85;;;16.60;99.90;;;;;;7395493;19;20583;-77
2022/09/02 03:05:46;;;;;;;2.83;1.73;;;16.70;99.90;;;;;;7394130;19;20163;-76
2022/09/02 03:08:12;;;;;;;2.03;1.80;;;16.80;99.90;;;;;;7394443;19;20138;-77
2022/09/02 03:10:40;;;;;;;2.42;1.58;;;16.70;99.90;;;;;;7392841;19;20134;-78
2022/09/02 03:13:08;;;;;;;3.50;1.63;;;16.80;99.90;;;;;;7393897;19;20143;-79
2022/09/02 03:15:35;;;;;;;2.83;1.50;;;16.90;99.90;;;;;;7393017;19;20134;-79
2022/09/02 03:18:01;;;;;;;2.58;1.73;;;17.00;99.90;;;;;;7393419;19;20499;-79
2022/09/02 03:20:27;;;;;;;3.85;1.85;;;17.30;99.90;;;;;;7393244;19;20134;-79
2022/09/02 03:22:55;;;;;;;1.67;1.58;;;17.40;99.90;;;;;;7393401;19;20161;-79
2022/09/02 03:25:22;;;;;;;3.13;1.80;;;17.50;99.90;;;;;;7395333;19;20137;-79
2022/09/02 03:27:48;;;;;;;1.65;1.40;;;17.60;99.90;;;;;;7395959;19;20138;-80
2022/09/02 03:30:18;;;;;;;2.63;1.63;;;17.60;99.90;;;;;;7392773;19;20146;-78
2022/09/02 03:32:44;;;;;;;2.10;1.80;;;17.60;99.90;;;;;;7392121;19;20139;-77
2022/09/02 03:35:14;;;;;;;4.57;1.80;;;17.70;99.90;;;;;;7393220;19;20233;-79
2022/09/02 03:37:40;;;;;;;2.65;1.77;;;17.50;99.90;;;;;;7394431;19;20146;-78
2022/09/02 03:40:09;;;;;;;2.60;1.83;;;17.30;99.90;;;;;;7393341;19;20533;-79
2022/09/02 03:42:35;;;;;;;2.88;1.67;;;17.20;99.90;;;;;;7393537;19;20135;-79
2022/09/02 03:45:05;;;;;;;1.70;1.60;;;16.40;99.90;;;;;;7393671;19;20142;-79
2022/09/02 03:47:31;;;;;;;4.40;1.77;;;16.40;99.90;;;;;;7395473;19;20151;-78
2022/09/02 03:50:01;;;;;;;2.20;1.52;;;16.20;99.90;;;;;;7394555;19;20150;-80
2022/09/02 03:52:27;;;;;;;2.03;1.80;;;16.10;99.90;;;;;;7395407;19;20645;-79
2022/09/02 03:54:53;;;;;;;4.60;1.92;;;16.00;99.90;;;;;;7397793;19;20877;-79
2022/09/02 03:57:21;;;;;;;2.97;1.90;;;15.80;99.90;;;;;;7395201;19;20134;-79
2022/09/02 03:59:47;;;;;;;2.38;1.80;;;15.90;99.90;;;;;;7396898;19;20599;-79
2022/09/02 04:02:13;;;;;;;3.20;1.70;;;15.60;99.90;;;;;;7397814;19;20142;-76
2022/09/02 04:04:39;;;;;;;2.30;1.63;;;15.80;99.90;;;;;;7394611;19;20138;-79
2022/09/02 04:07:05;;;;;;;6.25;1.88;;;15.90;99.90;;;;;;7394213;19;20154;-76
2022/09/02 04:09:31;;;;;;;7.57;2.10;;;16.30;99.90;;;;;;7405374;19;20478;-77
2022/09/02 04:11:56;;;;;;;2.50;1.83;;;16.40;99.90;;;;;;7404712;19;20213;-78
2022/09/02 04:14:22;;;;;;;2.70;2.13;;;16.60;99.90;;;;;;7406759;19;20151;-77
2022/09/02 04:20:47;;;;;;;4.22;1.90;;;16.80;99.90;;;;;;7410808;19;20130;-78
2022/09/02 04:23:13;;;;;;;3.60;1.98;;;16.80;99.90;;;;;;7407728;19;20141;-79
2022/09/02 04:25:41;;;;;;;3.15;2.25;;;16.80;99.90;;;;;;7398426;19;20162;-76
2022/09/02 04:28:08;;;;;;;2.50;2.17;;;16.50;99.90;;;;;;7391597;19;20242;-79
2022/09/02 04:30:36;;;;;;;2.85;2.30;;;16.70;99.90;;;;;;7392311;19;20155;-79
2022/09/02 04:33:02;;;;;;;3.50;1.83;;;16.60;99.90;;;;;;7391376;19;20199;-77
2022/09/02 04:35:28;;;;;;;2.00;1.70;;;16.40;99.90;;;;;;7395143;19;20493;-78
2022/09/02 04:37:54;;;;;;;3.08;2.10;;;16.00;99.90;;;;;;7398095;19;20138;-76
2022/09/02 04:40:19;;;;;;;2.60;2.10;;;15.80;99.90;;;;;;7400864;19;20241;-77
2022/09/02 04:42:46;;;;;;;3.33;2.13;;;15.80;99.90;;;;;;7398571;19;20527;-79
2022/09/02 04:45:11;;;;;;;4.95;1.98;;;16.00;99.90;;;;;;7400406;19;20139;-77
2022/09/02 04:47:38;;;;;;;2.78;1.90;;;16.30;99.90;;;;;;7400295;19;20150;-79
2022/09/02 04:50:05;;;;;;;5.18;2.08;;;16.30;99.90;;;;;;7398799;19;20490;-76
2022/09/02 04:52:30;;;;;;;3.53;1.67;;;16.70;99.90;;;;;;7398614;19;20141;-78
2022/09/02 04:54:59;;;;;;;2.15;1.90;;;16.80;99.90;;;;;;7399945;19;20202;-79
2022/09/02 04:57:31;;;;;;;2.40;1.90;;;17.00;99.90;;;;;;7398240;19;20154;-77
2022/09/02 04:59:57;;;;;;;7.10;1.95;;;17.10;99.90;;;;;;7396583;19;20135;-78
2022/09/02 05:02:23;;;;;;;2.10;1.52;;;17.20;99.90;;;;;;7398646;19;20549;-78
2022/09/02 05:04:57;;;;;;;1.70;1.50;;;17.40;99.90;;;;;;7404750;19;20122;-78
2022/09/02 05:07:37;;;;;;;1.80;1.50;;;17.30;99.90;;;;;;7404734;19;20507;-79
2022/09/02 05:10:07;;;;;;;2.22;1.73;;;17.40;99.90;;;;;;7400387;19;20146;-79
2022/09/02 05:12:34;;;;;;;1.77;1.55;;;17.20;99.90;;;;;;7395998;19;20169;-79
2022/09/02 05:15:01;;;;;;;2.58;1.90;;;17.20;99.90;;;;;;7396625;19;20138;-78
2022/09/02 05:17:30;;;;;;;6.78;1.80;;;17.30;99.90;;;;;;7398371;19;20133;-79
2022/09/02 05:20:00;;;;;;;4.00;1.65;;;17.30;99.90;;;;;;7394079;19;20911;-80
2022/09/02 05:22:28;;;;;;;2.75;1.90;;;17.30;99.90;;;;;;7395295;19;20147;-79
2022/09/02 05:24:57;;;;;;;2.20;1.98;;;17.30;99.90;;;;;;7395242;19;20131;-79
2022/09/02 05:27:24;;;;;;;2.47;1.73;;;17.30;99.90;;;;;;7395791;19;20245;-78
2022/09/02 05:29:53;;;;;;;4.68;2.20;;;17.10;99.90;;;;;;7394486;19;20733;-77
2022/09/02 05:32:22;;;;;;;3.15;1.67;;;16.70;99.90;;;;;;7395081;19;20434;-79
2022/09/02 05:34:51;;;;;;;2.00;1.75;;;16.80;99.90;;;;;;7397589;19;20464;-78
2022/09/02 05:37:17;;;;;;;5.43;1.85;;;17.10;99.90;;;;;;7396867;19;20147;-79
2022/09/02 05:39:51;;;;;;;3.28;1.65;;;17.00;99.90;;;;;;7395699;19;20331;-80
2022/09/02 05:42:19;;;;;;;2.88;1.77;;;16.70;99.90;;;;;;7396293;19;20142;-77
2022/09/02 05:44:45;;;;;;;2.83;2.03;;;16.70;99.90;;;;;;7397911;19;20141;-79
2022/09/02 05:47:11;;;;;;;3.85;2.55;;;16.50;99.90;;;;;;7395490;19;20137;-78
2022/09/02 05:49:37;;;;;;;4.20;2.30;;;16.60;99.90;;;;;;7395439;19;20511;-77
2022/09/02 05:52:04;;;;;;;3.22;2.03;;;16.80;99.90;;;;;;7395434;19;20149;-77
2022/09/02 05:54:34;;;;;;;5.30;2.35;;;17.00;99.90;;;;;;7387651;19;20241;-78
2022/09/02 05:57:07;;;;;;;6.20;2.50;;;17.20;99.90;;;;;;7395149;19;20131;-77
2022/09/02 05:59:37;;;;;;;3.22;2.60;;;17.10;99.90;;;;;;7391331;19;20131;-78
2022/09/02 06:02:03;;;;;;;4.05;2.47;;;17.20;99.90;;;;;;7393281;19;20161;-79
2022/09/02 06:04:30;;;;;;;6.65;2.55;;;17.20;99.90;;;;;;7395924;19;20134;-80
2022/09/02 06:06:56;;;;;;;7.30;2.90;;;17.40;99.90;;;;;;7393864;19;20234;-78
2022/09/02 06:09:23;;;;;;;4.53;2.88;;;17.40;99.90;;;;;;7395287;19;20741;-77
2022/09/02 06:11:50;;;;;;;5.63;2.55;;;17.20;99.90;;;;;;7395341;19;20173;-78
2022/09/02 06:14:19;;;;;;;2.90;2.60;;;17.10;99.90;;;;;;7393434;19;20135;-78
2022/09/02 06:16:45;;;;;;;6.10;2.50;;;17.00;99.90;;;;;;7394323;19;20163;-79
2022/09/02 06:19:11;;;;;;;3.53;2.40;;;16.80;99.90;;;;;;7394303;19;20231;-78
2022/09/02 06:21:38;;;;;;;4.50;2.40;;;17.10;99.90;;;;;;7394420;19;20482;-80
2022/09/02 06:24:05;;;;;;;4.88;2.58;;;17.40;99.90;;;;;;7395353;19;20143;-78
2022/09/02 06:26:31;;;;;;;3.47;2.45;;;17.50;99.90;;;;;;7394853;19;20135;-79
2022/09/02 06:28:58;;;;;;;3.97;2.40;;;17.50;99.90;;;;;;7397216;19;20138;-79
2022/09/02 06:31:24;;;;;;;3.40;2.38;;;17.60;99.90;;;;;;7394669;19;20794;-79
2022/09/02 06:33:55;;;;;;;8.68;2.83;;;17.60;99.90;;;;;;7392798;19;20142;-79
2022/09/02 06:36:22;;;;;;;5.68;2.60;;;17.60;99.90;;;;;;7393790;19;20154;-79
2022/09/02 06:38:50;;;;;;;4.53;2.42;;;17.40;99.90;;;;;;7392912;19;20147;-80
2022/09/02 06:41:21;;;;;;;3.80;2.55;;;17.50;99.90;;;;;;7394744;19;20241;-78
2022/09/02 06:43:48;;;;;;;3.60;2.17;;;17.70;99.90;;;;;;7393152;19;20146;-81
2022/09/02 06:46:16;;;;;;;2.45;2.22;;;17.70;99.90;;;;;;7393505;19;20480;-82
2022/09/02 06:48:42;;;;;;;4.03;2.28;;;17.80;99.90;;;;;;7393916;19;20440;-80
2022/09/02 06:51:14;;;;;;;3.72;2.20;;;17.70;99.90;;;;;;7394217;19;20605;-80
2022/09/02 06:53:39;;;;;;;2.42;2.17;;;17.70;99.90;;;;;;7392810;19;20202;-79
2022/09/02 06:56:06;;;;;;;3.15;2.10;;;17.40;99.90;;;;;;7393272;19;20168;-77
2022/09/02 06:58:33;;;;;;;3.00;2.50;;;17.50;99.90;;;;;;7389832;19;20599;-79
2022/09/02 07:01:00;;;;;;;4.35;2.20;;;17.80;99.90;;;;;;7390412;19;20157;-78
2022/09/02 07:06:12;;;;;;;4.43;2.08;;;18.10;99.90;;;;;;7393817;19;20146;-78
2022/09/02 07:08:41;;;;;;;3.20;1.90;;;18.30;99.90;;;;;;7392755;19;20142;-78
2022/09/02 07:11:17;;;;;;;2.20;1.75;;;18.40;99.90;;;;;;7393200;19;20175;-78
2022/09/02 07:13:45;;;;;;;2.75;1.88;;;18.40;99.90;;;;;;7392832;19;20161;-78
2022/09/02 07:16:13;;;;;;;2.17;1.80;;;18.50;99.90;;;;;;7394145;19;20647;-78
2022/09/02 07:18:40;;;;;;;3.78;2.10;;;18.50;99.90;;;;;;7393772;19;20150;-78
2022/09/02 07:21:12;;;;;;;1.88;1.58;;;18.70;99.90;;;;;;7393676;19;20583;-83
2022/09/02 07:23:39;;;;;;;1.67;1.30;;;19.00;99.90;;;;;;7391773;19;20151;-80
2022/09/02 07:26:16;;;;;;;2.45;1.67;;;19.00;99.90;;;;;;7393737;19;20142;-78
2022/09/02 07:28:42;;;;;;;3.53;1.63;;;19.10;99.90;;;;;;7393215;19;20154;-77
2022/09/02 07:31:09;;;;;;;2.65;1.90;;;19.20;99.90;;;;;;7394601;19;20139;-79
2022/09/02 07:33:37;;;;;;;3.17;1.85;;;19.20;99.90;;;;;;7392848;19;20159;-79
2022/09/02 07:36:05;;;;;;;6.57;1.88;;;19.30;99.90;;;;;;7392122;19;20173;-78
2022/09/02 07:38:31;;;;;;;3.13;1.60;;;19.40;99.90;;;;;;7393615;19;20147;-79
2022/09/02 07:40:59;;;;;;;2.47;1.63;;;19.60;99.90;;;;;;7393241;19;20558;-77
2022/09/02 07:43:26;;;;;;;5.05;1.80;;;20.10;99.90;;;;;;7391949;19;20230;-79
2022/09/02 07:45:54;;;;;;;2.15;1.73;;;20.60;99.90;;;;;;7394640;19;20209;-79
2022/09/02 07:48:21;;;;;;;4.13;2.25;;;21.30;99.90;;;;;;7391076;19;20222;-80
2022/09/02 07:50:46;;;;;;;4.22;1.55;;;21.90;99.90;;;;;;7392672;19;20154;-78
2022/09/02 07:53:15;;;;;;;2.38;1.20;;;22.50;99.90;;;;;;7392340;19;20634;-79
2022/09/02 07:55:42;;;;;;;2.03;1.25;;;22.80;99.90;;;;;;7391850;19;20161;-80
2022/09/02 07:58:09;;;;;;;1.45;1.20;;;23.30;99.90;;;;;;7393122;19;20158;-78
2022/09/02 08:00:35;;;;;;;1.45;1.30;;;23.60;99.90;;;;;;7393401;19;20153;-79
2022/09/02 08:03:02;;;;;;;2.13;1.70;;;23.70;99.90;;;;;;7392615;19;20154;-80
2022/09/02 08:05:30;;;;;;;1.80;1.35;;;23.70;99.90;;;;;;7391940;19;20134;-79
2022/09/02 08:07:57;;;;;;;2.65;1.20;;;23.90;99.90;;;;;;7389909;19;20729;-78
2022/09/02 08:10:26;;;;;;;3.58;1.17;;;23.80;99.90;;;;;;7394145;19;20174;-79
2022/09/02 08:12:52;;;;;;;1.52;1.05;;;23.80;99.90;;;;;;7390263;19;20154;-79
2022/09/02 08:15:18;;;;;;;2.03;1.05;;;23.60;99.90;;;;;;7392362;19;20142;-82
2022/09/02 08:17:46;;;;;;;4.57;1.27;;;23.50;99.90;;;;;;7390536;19;20210;-79
2022/09/02 08:20:13;;;;;;;1.70;1.10;;;23.20;99.90;;;;;;7391777;19;20142;-80
2022/09/02 08:22:40;;;;;;;4.57;1.30;;;22.80;99.90;;;;;;7393335;19;20143;-80
2022/09/02 08:25:07;;;;;;;2.25;1.20;;;22.70;99.90;;;;;;7393574;19;20176;-81
2022/09/02 08:27:33;;;;;;;2.35;1.65;;;22.60;99.90;;;;;;7391513;19;20476;-80
2022/09/02 08:30:00;;;;;;;1.27;0.95;;;22.50;99.90;;;;;;7391149;19;20510;-78
2022/09/02 08:32:31;;;;;;;1.48;1.00;;;22.40;99.90;;;;;;7390905;19;20644;-80
2022/09/02 08:35:03;;;;;;;2.25;0.88;;;22.20;99.90;;;;;;7392663;19;20206;-81
2022/09/02 08:37:30;;;;;;;2.13;1.08;;;22.20;99.90;;;;;;7391491;19;20142;-82
2022/09/02 08:39:56;;;;;;;2.58;0.90;;;22.20;99.90;;;;;;7392578;19;20153;-81
2022/09/02 08:42:51;;;;;;;1.20;1.05;;;22.50;99.90;;;;;;7390826;19;20164;-80
2022/09/02 08:45:24;;;;;;;1.50;1.05;;;22.50;99.90;;;;;;7390084;19;20146;-80
2022/09/02 08:48:03;;;;;;;2.60;0.93;;;22.50;99.90;;;;;;7392719;19;20543;-79
2022/09/02 08:50:31;;;;;;;5.22;1.00;;;22.40;99.90;;;;;;7390757;19;20227;-80
2022/09/02 08:53:27;;;;;;;1.13;1.02;;;22.40;99.90;;;;;;7392552;19;20139;-81
2022/09/02 08:55:55;;;;;;;2.47;1.15;;;22.40;99.90;;;;;;7388034;19;20516;-81
2022/09/02 08:58:27;;;;;;;2.03;1.00;;;22.40;99.90;;;;;;7392245;19;20150;-81
2022/09/02 09:01:09;;;;;;;2.33;0.80;;;22.50;99.90;;;;;;7391965;19;20158;-81
2022/09/02 09:03:59;;;;;;;4.13;1.00;;;22.50;99.90;;;;;;7390664;19;20126;-80
2022/09/02 09:06:59;;;;;;;1.25;0.82;;;22.50;99.90;;;;;;7391739;19;20134;-81
2022/09/02 09:09:44;;;;;;;1.40;0.90;;;22.40;99.90;;;;;;7391528;19;20155;-82
2022/09/02 09:12:31;;;;;;;3.50;0.90;;;22.50;99.90;;;;;;7391198;19;20166;-82
2022/09/02 09:15:05;;;;;;;1.73;0.90;;;22.60;99.90;;;;;;7390594;19;20206;-79
2022/09/02 09:17:46;;;;;;;1.42;0.90;;;22.60;99.90;;;;;;7392041;19;20161;-80
2022/09/02 09:20:19;;;;;;;2.05;1.05;;;22.60;99.90;;;;;;7390800;19;20138;-80
2022/09/02 09:22:46;;;;;;;1.20;0.98;;;22.70;99.90;;;;;;7398800;19;20487;-80
2022/09/02 09:25:14;;;;;;;0.60;0.60;;;22.80;99.90;;;;;;7401654;19;20138;-80
2022/09/02 09:27:41;;;;;;;1.88;1.17;;;22.80;99.90;;;;;;7399053;19;20150;-80
2022/09/02 09:30:09;;;;;;;1.90;1.10;;;22.60;99.80;;;;;;7400516;19;20147;-79
2022/09/02 09:32:42;;;;;;;1.20;1.00;;;22.50;99.90;;;;;;7400774;19;20133;-79
2022/09/02 09:35:14;;;;;;;1.98;0.85;;;22.50;99.60;;;;;;7400896;19;20511;-81
2022/09/02 09:37:47;;;;;;;0.88;0.80;;;22.60;99.50;;;;;;7399685;19;20145;-80
2022/09/02 09:40:21;;;;;;;1.75;0.93;;;22.60;99.20;;;;;;7404461;19;20135;-80
2022/09/02 09:42:55;;;;;;;1.63;0.93;;;22.80;98.70;;;;;;7401391;19;20145;-80
2022/09/02 09:45:40;;;;;;;1.58;0.70;;;22.80;98.30;;;;;;7401479;19;20177;-81
2022/09/02 09:48:15;;;;;;;2.13;0.90;;;22.90;97.20;;;;;;7401793;19;20647;-81
2022/09/02 09:50:54;;;;;;;1.35;0.95;;;22.80;98.30;;;;;;7404121;19;20138;-80
2022/09/02 09:53:24;;;;;;;2.42;0.90;;;23.00;98.40;;;;;;7401914;19;20138;-81
2022/09/02 09:56:04;;;;;;;1.40;0.80;;;23.10;97.00;;;;;;7402070;19;20146;-81
2022/09/02 09:58:38;;;;;;;0.98;0.90;;;23.10;97.10;;;;;;7398202;19;20488;-80
2022/09/02 10:01:15;;;;;;;1.00;0.80;;;23.10;97.30;;;;;;7397809;19;20213;-81
2022/09/02 10:03:54;;;;;;;0.82;0.77;;;23.00;96.70;;;;;;7396808;19;20126;-80
2022/09/02 10:06:37;;;;;;;1.10;0.98;;;23.00;97.30;;;;;;7396922;19;20217;-79
2022/09/02 10:09:04;;;;;;;1.30;1.02;;;23.10;96.60;;;;;;7398667;19;20151;-82
2022/09/02 10:11:32;;;;;;;2.33;0.77;;;23.00;96.40;;;;;;7395297;19;20151;-82
2022/09/02 10:14:02;;;;;;;1.50;1.13;;;23.00;95.80;;;;;;7394868;19;20262;-83
2022/09/02 10:16:41;;;;;;;3.22;0.50;;;23.10;95.60;;;;;;7396040;19;20149;-80
2022/09/02 10:19:25;;;;;;;1.25;0.70;;;23.10;94.20;;;;;;7394408;19;20225;-81
2022/09/02 10:22:05;;;;;;;0.70;0.70;;;23.10;94.20;;;;;;7398206;19;20138;-81
2022/09/02 10:24:50;;;;;;;0.95;0.77;;;23.10;94.60;;;;;;7395823;19;20569;-81
2022/09/02 10:27:36;;;;;;;1.23;0.75;;;23.10;94.60;;;;;;7396803;19;20759;-81
2022/09/02 10:30:14;;;;;;;0.80;0.70;;;23.20;93.20;;;;;;7398737;19;20405;-81
2022/09/02 10:32:53;;;;;;;2.17;1.08;;;23.40;93.10;;;;;;7395067;19;20149;-83
2022/09/02 10:35:42;;;;;;;1.30;1.20;;;23.50;91.90;;;;;;7395550;19;20149;-81
2022/09/02 10:38:41;;;;;;;0.82;0.70;;;23.40;91.60;;;;;;7394073;19;20147;-82
2022/09/02 10:41:22;;;;;;;1.00;0.90;;;23.50;91.80;;;;;;7394408;19;20146;-82
2022/09/02 10:43:54;;;;;;;0.73;0.50;;;23.60;91.40;;;;;;7394457;19;20143;-81
2022/09/02 10:46:23;;;;;;;1.45;0.90;;;23.50;91.60;;;;;;7395372;19;20154;-82
2022/09/02 10:49:01;;;;;;;1.30;0.65;;;23.60;91.90;;;;;;7394220;19;20165;-82
2022/09/02 10:51:36;;;;;;;0.95;0.80;;;23.70;91.60;;;;;;7394568;19;20505;-82
2022/09/02 10:54:02;;;;;;;1.95;0.90;;;23.60;91.50;;;;;;7395850;19;20142;-81
2022/09/02 10:56:34;;;;;;;1.00;0.90;;;23.70;91.50;;;;;;7396495;19;20142;-81
2022/09/02 10:59:09;;;;;;;1.05;0.77;;;23.70;91.80;;;;;;7394624;19;20165;-82
2022/09/02 11:01:42;;;;;;;0.98;0.80;;;23.80;91.20;;;;;;7393869;19;20740;-79
2022/09/02 11:04:44;;;;;;;1.33;0.68;;;23.80;91.10;;;;;;7397806;19;20138;-81
2022/09/02 11:07:18;;;;;;;0.80;0.70;;;23.80;91.50;;;;;;7394537;19;20153;-81
2022/09/02 11:10:08;;;;;;;1.30;1.10;;;23.80;91.60;;;;;;7395696;19;20149;-82
2022/09/02 11:12:39;;;;;;;1.25;0.80;;;24.00;91.30;;;;;;7393555;19;20182;-80
2022/09/02 11:15:18;;;;;;;1.45;0.90;;;24.00;90.80;;;;;;7395629;19;20860;-81
2022/09/02 11:17:51;;;;;;;1.15;0.80;;;24.00;91.10;;;;;;7395731;19;20583;-81
2022/09/02 11:21:11;;;;;;;0.60;0.52;;;24.00;90.70;;;;;;7395173;19;20202;-80
2022/09/02 11:23:44;;;;;;;1.52;0.90;;;24.00;91.30;;;;;;7389477;19;20143;-81
2022/09/02 11:27:00;;;;;;;1.73;1.00;;;24.00;91.20;;;;;;7394206;19;20841;-81
2022/09/02 11:29:42;;;;;;;0.98;0.60;;;24.00;90.60;;;;;;7389587;19;20169;-80
2022/09/02 11:32:21;;;;;;;1.25;0.88;;;24.10;90.40;;;;;;7393079;19;20166;-81
2022/09/02 11:34:49;;;;;;;1.20;0.80;;;24.20;90.50;;;;;;7393532;19;20750;-81
2022/09/02 11:37:40;;;;;;;2.30;0.93;;;24.10;90.00;;;;;;7394376;19;20147;-80
2022/09/02 11:40:12;;;;;;;1.13;0.60;;;24.20;91.00;;;;;;7394921;19;20218;-81
2022/09/02 11:42:48;;;;;;;3.00;0.85;;;24.40;90.50;;;;;;7393283;19;20610;-81
2022/09/02 11:45:55;;;;;;;1.00;0.82;;;24.50;89.90;;;;;;7392186;19;20551;-81
2022/09/02 11:48:25;;;;;;;1.42;0.80;;;24.60;89.90;;;;;;7390063;19;20142;-80
2022/09/02 11:51:16;;;;;;;2.20;0.75;;;24.40;88.90;;;;;;7395181;19;20155;-82
2022/09/02 11:53:44;;;;;;;1.40;0.70;;;24.50;90.10;;;;;;7392644;19;20143;-81
2022/09/02 11:56:15;;;;;;;0.73;0.73;;;24.40;90.10;;;;;;7393811;19;20602;-81
2022/09/02 11:58:46;;;;;;;2.13;0.88;;;24.30;89.90;;;;;;7390638;19;20892;-82
2022/09/02 12:01:29;;;;;;;0.82;0.82;;;24.30;89.90;;;;;;7392987;19;20165;-80
2022/09/02 12:04:10;;;;;;;1.60;1.25;;;24.30;89.90;;;;;;7393088;19;20163;-81
2022/09/02 12:06:37;;;;;;;1.10;0.80;;;24.50;89.30;;;;;;7391620;19;20162;-80
2022/09/02 12:09:05;;;;;;;2.03;1.23;;;24.60;88.90;;;;;;7393056;19;20138;-80
2022/09/02 12:11:40;;;;;;;1.98;1.13;;;24.70;87.90;;;;;;7390370;19;20647;-81
2022/09/02 12:14:31;;;;;;;3.10;1.00;;;24.80;88.40;;;;;;7390970;19;20149;-80
2022/09/02 12:17:03;;;;;;;2.35;1.10;;;24.80;88.30;;;;;;7393340;19;20158;-82
2022/09/02 12:19:39;;;;;;;3.08;1.75;;;24.90;87.60;;;;;;7389886;19;20146;-83
2022/09/02 12:22:13;;;;;;;1.00;0.90;;;24.80;88.20;;;;;;7391465;19;20221;-82
2022/09/02 12:24:54;;;;;;;1.75;0.90;;;24.80;87.20;;;;;;7392362;19;20142;-81
2022/09/02 12:27:26;;;;;;;0.82;0.70;;;24.80;86.80;;;;;;7391929;19;20145;-82
2022/09/02 12:29:53;;;;;;;1.08;0.80;;;24.70;87.80;;;;;;7390851;19;20163;-81
2022/09/02 12:32:44;;;;;;;1.50;0.90;;;24.60;88.20;;;;;;7390431;19;20461;-82
2022/09/02 12:35:33;;;;;;;0.70;0.70;;;24.70;87.90;;;;;;7391952;19;20146;-82
2022/09/02 12:38:11;;;;;;;0.80;0.70;;;24.80;88.10;;;;;;7390975;19;20156;-80
2022/09/02 12:40:52;;;;;;;0.90;0.80;;;25.00;87.00;;;;;;7390938;19;20214;-81
2022/09/02 12:43:43;;;;;;;1.40;0.85;;;24.90;87.00;;;;;;7391636;19;20156;-81
2022/09/02 12:46:43;;;;;;;1.63;0.80;;;24.90;86.90;;;;;;7391455;19;20150;-82
2022/09/02 12:49:16;;;;;;;1.08;0.88;;;24.80;87.80;;;;;;7390859;19;20527;-81
2022/09/02 12:51:51;;;;;;;1.08;0.70;;;24.70;88.60;;;;;;7391914;19;20139;-80
2022/09/02 12:54:25;;;;;;;1.13;0.90;;;24.80;88.00;;;;;;7390184;19;20250;-80
2022/09/02 12:56:51;;;;;;;0.80;0.68;;;24.90;86.30;;;;;;7397299;19;20145;-81
2022/09/02 12:59:35;;;;;;;1.27;0.90;;;24.90;87.00;;;;;;7391830;19;20494;-82
2022/09/02 13:02:18;;;;;;;1.13;0.90;;;24.90;87.60;;;;;;7389948;19;20522;-82
2022/09/02 13:04:53;;;;;;;1.58;0.80;;;25.00;87.20;;;;;;7396237;19;20181;-82
2022/09/02 13:07:19;;;;;;;0.77;0.70;;;25.00;88.00;;;;;;7396532;19;20189;-81
2022/09/02 13:10:09;;;;;;;1.83;0.90;;;25.00;88.40;;;;;;7395163;19;20154;-81
2022/09/02 13:12:38;;;;;;;2.00;0.82;;;24.90;89.00;;;;;;7396677;19;20253;-82
2022/09/02 13:15:17;;;;;;;1.95;0.80;;;24.90;89.60;;;;;;7400900;19;20150;-86